Istanbul, Turkey
Current Conditions -  °F | °C
As of 10:20 AM on Saturday 01 Nov 2014 (Local Time) from LTBA Reporting Station
Scattered Clouds Scattered Clouds  
Wind Chill: 55°   Ceiling: Unl
Heat Index: 55°   Visibility: 6mi
Dew Point: 45°   Wind: 22mph
Humidity: 67%   Direction: 360°N
Pressure: 30.21"   Gusts: NA
Location:  41.01°N, 28.95°E
Report Text: LTBA 010720Z 36019KT 9999 SCT040 13/07 Q1023 NOSIG
Loading
Personal Weather Stations






























Interactive Weather Map
Tropical Storm Tracking
New forecast layout! Learn more

10-Day Weather Forecast

Advertisements
Track Severe Weather on mobile